sensor_id;sensor_type;location;lat;lon;timestamp;P1;durP1;ratioP1;P2;durP2;ratioP2
10126;SDS011;13080;42.608;23.362;2023-10-08T00:01:07;3.97;;;1.92;;
10126;SDS011;13080;42.608;23.362;2023-10-08T00:03:37;6.90;;;2.10;;
10126;SDS011;13080;42.608;23.362;2023-10-08T00:06:05;5.03;;;2.75;;
10126;SDS011;13080;42.608;23.362;2023-10-08T00:08:38;7.03;;;3.03;;
10126;SDS011;13080;42.608;23.362;2023-10-08T00:11:05;4.40;;;1.83;;
10126;SDS011;13080;42.608;23.362;2023-10-08T00:13:32;5.68;;;2.42;;
10126;SDS011;13080;42.608;23.362;2023-10-08T00:16:05;3.97;;;2.42;;
10126;SDS011;13080;42.608;23.362;2023-10-08T00:18:34;5.07;;;2.47;;
10126;SDS011;13080;42.608;23.362;2023-10-08T00:21:02;5.60;;;2.40;;
10126;SDS011;13080;42.608;23.362;2023-10-08T00:23:42;3.97;;;1.80;;
10126;SDS011;13080;42.608;23.362;2023-10-08T00:26:15;4.53;;;2.38;;
10126;SDS011;13080;42.608;23.362;2023-10-08T00:28:53;5.95;;;2.40;;
10126;SDS011;13080;42.608;23.362;2023-10-08T00:31:21;3.88;;;1.88;;
10126;SDS011;13080;42.608;23.362;2023-10-08T00:33:55;6.10;;;2.63;;
10126;SDS011;13080;42.608;23.362;2023-10-08T00:36:22;4.60;;;2.55;;
10126;SDS011;13080;42.608;23.362;2023-10-08T00:38:50;4.70;;;2.25;;
10126;SDS011;13080;42.608;23.362;2023-10-08T00:41:18;7.15;;;2.80;;
10126;SDS011;13080;42.608;23.362;2023-10-08T00:43:47;3.40;;;2.13;;
10126;SDS011;13080;42.608;23.362;2023-10-08T00:46:14;7.53;;;2.15;;
10126;SDS011;13080;42.608;23.362;2023-10-08T00:48:48;6.68;;;2.40;;
10126;SDS011;13080;42.608;23.362;2023-10-08T00:51:18;5.45;;;2.65;;
10126;SDS011;13080;42.608;23.362;2023-10-08T00:54:00;3.03;;;1.98;;
10126;SDS011;13080;42.608;23.362;2023-10-08T00:56:37;8.63;;;2.85;;
10126;SDS011;13080;42.608;23.362;2023-10-08T00:59:15;6.00;;;2.25;;
10126;SDS011;13080;42.608;23.362;2023-10-08T01:01:46;5.55;;;2.42;;
10126;SDS011;13080;42.608;23.362;2023-10-08T01:04:16;4.43;;;2.03;;
10126;SDS011;13080;42.608;23.362;2023-10-08T01:06:47;4.90;;;2.30;;
10126;SDS011;13080;42.608;23.362;2023-10-08T01:09:18;7.95;;;2.05;;
10126;SDS011;13080;42.608;23.362;2023-10-08T01:14:40;4.40;;;2.42;;
10126;SDS011;13080;42.608;23.362;2023-10-08T01:17:08;5.07;;;2.08;;
10126;SDS011;13080;42.608;23.362;2023-10-08T01:19:39;5.93;;;2.88;;
10126;SDS011;13080;42.608;23.362;2023-10-08T01:22:09;4.47;;;2.15;;
10126;SDS011;13080;42.608;23.362;2023-10-08T01:24:43;6.28;;;2.42;;
10126;SDS011;13080;42.608;23.362;2023-10-08T01:27:11;4.38;;;2.85;;
10126;SDS011;13080;42.608;23.362;2023-10-08T01:29:38;5.72;;;2.22;;
10126;SDS011;13080;42.608;23.362;2023-10-08T01:32:05;5.70;;;2.53;;
10126;SDS011;13080;42.608;23.362;2023-10-08T01:34:36;5.35;;;2.22;;
10126;SDS011;13080;42.608;23.362;2023-10-08T01:37:04;6.95;;;2.60;;
10126;SDS011;13080;42.608;23.362;2023-10-08T01:39:36;5.88;;;2.50;;
10126;SDS011;13080;42.608;23.362;2023-10-08T01:42:05;3.78;;;2.13;;
10126;SDS011;13080;42.608;23.362;2023-10-08T01:44:40;6.18;;;2.50;;
10126;SDS011;13080;42.608;23.362;2023-10-08T01:47:07;4.68;;;2.42;;
10126;SDS011;13080;42.608;23.362;2023-10-08T01:49:36;6.80;;;2.67;;
10126;SDS011;13080;42.608;23.362;2023-10-08T01:52:04;4.10;;;1.95;;
10126;SDS011;13080;42.608;23.362;2023-10-08T01:54:39;5.82;;;2.47;;
10126;SDS011;13080;42.608;23.362;2023-10-08T01:57:06;6.18;;;2.33;;
10126;SDS011;13080;42.608;23.362;2023-10-08T01:59:34;6.78;;;2.80;;
10126;SDS011;13080;42.608;23.362;2023-10-08T02:02:03;8.57;;;2.88;;
10126;SDS011;13080;42.608;23.362;2023-10-08T02:04:31;5.38;;;2.63;;
10126;SDS011;13080;42.608;23.362;2023-10-08T02:07:00;5.30;;;2.50;;
10126;SDS011;13080;42.608;23.362;2023-10-08T02:09:28;6.32;;;2.33;;
10126;SDS011;13080;42.608;23.362;2023-10-08T02:11:57;6.55;;;2.45;;
10126;SDS011;13080;42.608;23.362;2023-10-08T02:14:24;4.55;;;2.30;;
10126;SDS011;13080;42.608;23.362;2023-10-08T02:16:51;5.03;;;2.30;;
10126;SDS011;13080;42.608;23.362;2023-10-08T02:19:21;5.53;;;2.45;;
10126;SDS011;13080;42.608;23.362;2023-10-08T02:21:52;4.38;;;2.17;;
10126;SDS011;13080;42.608;23.362;2023-10-08T02:24:19;6.30;;;2.80;;
10126;SDS011;13080;42.608;23.362;2023-10-08T02:26:49;5.63;;;2.53;;
10126;SDS011;13080;42.608;23.362;2023-10-08T02:29:18;4.63;;;2.33;;
10126;SDS011;13080;42.608;23.362;2023-10-08T02:31:45;4.10;;;2.20;;
10126;SDS011;13080;42.608;23.362;2023-10-08T02:34:12;5.32;;;2.53;;
10126;SDS011;13080;42.608;23.362;2023-10-08T02:36:40;6.00;;;2.60;;
10126;SDS011;13080;42.608;23.362;2023-10-08T02:39:07;4.82;;;2.40;;
10126;SDS011;13080;42.608;23.362;2023-10-08T02:41:42;5.00;;;2.38;;
10126;SDS011;13080;42.608;23.362;2023-10-08T02:44:11;7.20;;;2.70;;
10126;SDS011;13080;42.608;23.362;2023-10-08T02:46:40;5.93;;;2.50;;
10126;SDS011;13080;42.608;23.362;2023-10-08T02:49:09;4.65;;;2.90;;
10126;SDS011;13080;42.608;23.362;2023-10-08T02:51:37;7.03;;;2.70;;
10126;SDS011;13080;42.608;23.362;2023-10-08T02:54:06;5.60;;;2.78;;
10126;SDS011;13080;42.608;23.362;2023-10-08T02:56:42;5.95;;;2.53;;
10126;SDS011;13080;42.608;23.362;2023-10-08T02:59:10;4.95;;;2.22;;
10126;SDS011;13080;42.608;23.362;2023-10-08T03:01:37;4.05;;;1.80;;
10126;SDS011;13080;42.608;23.362;2023-10-08T03:04:07;8.20;;;2.47;;
10126;SDS011;13080;42.608;23.362;2023-10-08T03:06:42;4.95;;;2.58;;
10126;SDS011;13080;42.608;23.362;2023-10-08T03:09:09;5.18;;;2.05;;
10126;SDS011;13080;42.608;23.362;2023-10-08T03:11:38;5.25;;;2.20;;
10126;SDS011;13080;42.608;23.362;2023-10-08T03:14:12;6.75;;;2.28;;
10126;SDS011;13080;42.608;23.362;2023-10-08T03:16:47;7.22;;;2.80;;
10126;SDS011;13080;42.608;23.362;2023-10-08T03:19:16;6.72;;;2.65;;
10126;SDS011;13080;42.608;23.362;2023-10-08T03:21:45;5.18;;;2.47;;
10126;SDS011;13080;42.608;23.362;2023-10-08T03:26:56;4.75;;;2.30;;
10126;SDS011;13080;42.608;23.362;2023-10-08T03:29:31;5.18;;;2.40;;
10126;SDS011;13080;42.608;23.362;2023-10-08T03:32:05;6.10;;;2.80;;
10126;SDS011;13080;42.608;23.362;2023-10-08T03:34:39;6.10;;;2.70;;
10126;SDS011;13080;42.608;23.362;2023-10-08T03:37:08;7.05;;;2.35;;
10126;SDS011;13080;42.608;23.362;2023-10-08T03:39:37;4.85;;;2.38;;
10126;SDS011;13080;42.608;23.362;2023-10-08T03:42:20;5.90;;;2.42;;
10126;SDS011;13080;42.608;23.362;2023-10-08T03:44:55;5.03;;;2.65;;
10126;SDS011;13080;42.608;23.362;2023-10-08T03:47:22;6.72;;;2.28;;
10126;SDS011;13080;42.608;23.362;2023-10-08T03:49:52;5.45;;;2.58;;
10126;SDS011;13080;42.608;23.362;2023-10-08T03:52:19;7.60;;;2.17;;
10126;SDS011;13080;42.608;23.362;2023-10-08T03:54:48;5.90;;;2.45;;
10126;SDS011;13080;42.608;23.362;2023-10-08T03:57:29;4.20;;;2.15;;
10126;SDS011;13080;42.608;23.362;2023-10-08T04:00:07;7.32;;;2.63;;
10126;SDS011;13080;42.608;23.362;2023-10-08T04:02:39;7.18;;;2.30;;
10126;SDS011;13080;42.608;23.362;2023-10-08T04:05:08;6.55;;;2.60;;
10126;SDS011;13080;42.608;23.362;2023-10-08T04:10:31;6.13;;;2.42;;
10126;SDS011;13080;42.608;23.362;2023-10-08T04:13:25;6.50;;;2.60;;
10126;SDS011;13080;42.608;23.362;2023-10-08T04:15:51;5.88;;;2.92;;
10126;SDS011;13080;42.608;23.362;2023-10-08T04:18:17;6.97;;;2.30;;
10126;SDS011;13080;42.608;23.362;2023-10-08T04:20:46;6.45;;;2.20;;
10126;SDS011;13080;42.608;23.362;2023-10-08T04:23:25;7.20;;;2.60;;
10126;SDS011;13080;42.608;23.362;2023-10-08T04:25:54;5.45;;;2.40;;
10126;SDS011;13080;42.608;23.362;2023-10-08T04:28:21;5.15;;;2.80;;
10126;SDS011;13080;42.608;23.362;2023-10-08T04:30:48;5.07;;;2.25;;
10126;SDS011;13080;42.608;23.362;2023-10-08T04:33:15;5.88;;;2.25;;
10126;SDS011;13080;42.608;23.362;2023-10-08T04:35:45;5.85;;;2.80;;
10126;SDS011;13080;42.608;23.362;2023-10-08T04:38:17;5.93;;;2.85;;
10126;SDS011;13080;42.608;23.362;2023-10-08T04:40:46;6.68;;;2.95;;
10126;SDS011;13080;42.608;23.362;2023-10-08T04:43:18;5.85;;;2.75;;
10126;SDS011;13080;42.608;23.362;2023-10-08T04:45:50;5.72;;;2.40;;
10126;SDS011;13080;42.608;23.362;2023-10-08T04:48:16;4.28;;;2.08;;
10126;SDS011;13080;42.608;23.362;2023-10-08T04:50:47;5.28;;;3.10;;
10126;SDS011;13080;42.608;23.362;2023-10-08T04:53:24;4.07;;;2.08;;
10126;SDS011;13080;42.608;23.362;2023-10-08T04:56:01;5.20;;;2.78;;
10126;SDS011;13080;42.608;23.362;2023-10-08T04:58:31;5.18;;;2.80;;
10126;SDS011;13080;42.608;23.362;2023-10-08T05:01:02;7.22;;;3.00;;
10126;SDS011;13080;42.608;23.362;2023-10-08T05:03:57;4.60;;;2.15;;
10126;SDS011;13080;42.608;23.362;2023-10-08T05:06:48;5.85;;;2.72;;
10126;SDS011;13080;42.608;23.362;2023-10-08T05:09:42;7.28;;;2.97;;
10126;SDS011;13080;42.608;23.362;2023-10-08T05:12:17;5.07;;;2.80;;
10126;SDS011;13080;42.608;23.362;2023-10-08T05:15:03;6.78;;;2.40;;
10126;SDS011;13080;42.608;23.362;2023-10-08T05:17:56;5.80;;;2.45;;
10126;SDS011;13080;42.608;23.362;2023-10-08T05:20:35;5.70;;;2.35;;
10126;SDS011;13080;42.608;23.362;2023-10-08T05:23:24;6.03;;;2.80;;
10126;SDS011;13080;42.608;23.362;2023-10-08T05:26:09;7.50;;;3.30;;
10126;SDS011;13080;42.608;23.362;2023-10-08T05:28:45;7.38;;;2.75;;
10126;SDS011;13080;42.608;23.362;2023-10-08T05:31:25;10.27;;;2.70;;
10126;SDS011;13080;42.608;23.362;2023-10-08T05:34:11;5.45;;;2.72;;
10126;SDS011;13080;42.608;23.362;2023-10-08T05:36:44;6.28;;;2.35;;
10126;SDS011;13080;42.608;23.362;2023-10-08T05:39:36;5.35;;;2.85;;
10126;SDS011;13080;42.608;23.362;2023-10-08T05:42:07;9.75;;;3.35;;
10126;SDS011;13080;42.608;23.362;2023-10-08T05:44:42;7.28;;;3.25;;
10126;SDS011;13080;42.608;23.362;2023-10-08T05:47:11;8.02;;;3.20;;
10126;SDS011;13080;42.608;23.362;2023-10-08T05:50:03;6.35;;;2.72;;
10126;SDS011;13080;42.608;23.362;2023-10-08T05:52:49;5.93;;;2.83;;
10126;SDS011;13080;42.608;23.362;2023-10-08T05:55:40;5.63;;;2.53;;
10126;SDS011;13080;42.608;23.362;2023-10-08T05:58:12;6.75;;;2.72;;
10126;SDS011;13080;42.608;23.362;2023-10-08T06:00:49;6.15;;;3.20;;
10126;SDS011;13080;42.608;23.362;2023-10-08T06:03:34;9.25;;;2.60;;
10126;SDS011;13080;42.608;23.362;2023-10-08T06:06:14;8.20;;;3.83;;
10126;SDS011;13080;42.608;23.362;2023-10-08T06:09:02;12.45;;;6.05;;
10126;SDS011;13080;42.608;23.362;2023-10-08T06:11:46;9.00;;;3.75;;
10126;SDS011;13080;42.608;23.362;2023-10-08T06:14:33;6.28;;;3.85;;
10126;SDS011;13080;42.608;23.362;2023-10-08T06:19:59;7.68;;;3.95;;
10126;SDS011;13080;42.608;23.362;2023-10-08T06:22:34;15.05;;;5.28;;
10126;SDS011;13080;42.608;23.362;2023-10-08T06:25:03;10.32;;;5.25;;
10126;SDS011;13080;42.608;23.362;2023-10-08T06:27:43;9.48;;;4.43;;
10126;SDS011;13080;42.608;23.362;2023-10-08T06:30:11;11.63;;;3.85;;
10126;SDS011;13080;42.608;23.362;2023-10-08T06:32:42;9.90;;;3.90;;
10126;SDS011;13080;42.608;23.362;2023-10-08T06:35:10;5.82;;;2.88;;
10126;SDS011;13080;42.608;23.362;2023-10-08T06:37:42;6.57;;;2.92;;
10126;SDS011;13080;42.608;23.362;2023-10-08T06:40:12;7.75;;;3.78;;
10126;SDS011;13080;42.608;23.362;2023-10-08T06:43:06;8.02;;;3.30;;
10126;SDS011;13080;42.608;23.362;2023-10-08T06:45:37;5.95;;;2.65;;
10126;SDS011;13080;42.608;23.362;2023-10-08T06:48:05;8.95;;;3.20;;
10126;SDS011;13080;42.608;23.362;2023-10-08T06:50:33;7.40;;;3.65;;
10126;SDS011;13080;42.608;23.362;2023-10-08T06:53:01;5.40;;;2.67;;
10126;SDS011;13080;42.608;23.362;2023-10-08T06:55:34;8.60;;;3.33;;
10126;SDS011;13080;42.608;23.362;2023-10-08T06:58:01;8.60;;;3.30;;
10126;SDS011;13080;42.608;23.362;2023-10-08T07:00:32;7.20;;;2.95;;
10126;SDS011;13080;42.608;23.362;2023-10-08T07:03:04;5.22;;;2.20;;
10126;SDS011;13080;42.608;23.362;2023-10-08T07:05:36;7.97;;;2.83;;
10126;SDS011;13080;42.608;23.362;2023-10-08T07:08:06;6.13;;;2.70;;
10126;SDS011;13080;42.608;23.362;2023-10-08T07:10:36;5.35;;;2.40;;
10126;SDS011;13080;42.608;23.362;2023-10-08T07:13:03;5.20;;;2.65;;
10126;SDS011;13080;42.608;23.362;2023-10-08T07:15:33;11.60;;;2.83;;
10126;SDS011;13080;42.608;23.362;2023-10-08T07:18:03;6.85;;;2.53;;
10126;SDS011;13080;42.608;23.362;2023-10-08T07:20:38;8.13;;;2.97;;
10126;SDS011;13080;42.608;23.362;2023-10-08T07:23:07;11.85;;;3.47;;
10126;SDS011;13080;42.608;23.362;2023-10-08T07:25:46;8.48;;;3.60;;
10126;SDS011;13080;42.608;23.362;2023-10-08T07:28:18;6.63;;;3.33;;
10126;SDS011;13080;42.608;23.362;2023-10-08T07:30:46;10.05;;;3.38;;
10126;SDS011;13080;42.608;23.362;2023-10-08T07:33:15;8.52;;;3.33;;
10126;SDS011;13080;42.608;23.362;2023-10-08T07:35:45;13.77;;;3.80;;
10126;SDS011;13080;42.608;23.362;2023-10-08T07:38:20;10.20;;;3.53;;
10126;SDS011;13080;42.608;23.362;2023-10-08T07:40:49;6.70;;;3.25;;
10126;SDS011;13080;42.608;23.362;2023-10-08T07:43:18;6.60;;;3.35;;
10126;SDS011;13080;42.608;23.362;2023-10-08T07:45:45;7.55;;;3.25;;
10126;SDS011;13080;42.608;23.362;2023-10-08T07:48:12;7.15;;;3.47;;
10126;SDS011;13080;42.608;23.362;2023-10-08T07:50:41;8.82;;;3.72;;
10126;SDS011;13080;42.608;23.362;2023-10-08T07:53:10;7.57;;;3.35;;
10126;SDS011;13080;42.608;23.362;2023-10-08T07:55:46;8.18;;;3.80;;
10126;SDS011;13080;42.608;23.362;2023-10-08T07:58:16;8.35;;;3.90;;
10126;SDS011;13080;42.608;23.362;2023-10-08T08:00:43;5.45;;;3.28;;
10126;SDS011;13080;42.608;23.362;2023-10-08T08:03:20;11.90;;;3.95;;
10126;SDS011;13080;42.608;23.362;2023-10-08T08:05:47;8.55;;;3.95;;
10126;SDS011;13080;42.608;23.362;2023-10-08T08:08:18;9.40;;;4.22;;
10126;SDS011;13080;42.608;23.362;2023-10-08T08:10:47;11.85;;;3.35;;
10126;SDS011;13080;42.608;23.362;2023-10-08T08:13:24;8.95;;;3.88;;
10126;SDS011;13080;42.608;23.362;2023-10-08T08:15:53;9.43;;;3.50;;
10126;SDS011;13080;42.608;23.362;2023-10-08T08:18:23;7.03;;;3.05;;
10126;SDS011;13080;42.608;23.362;2023-10-08T08:20:58;7.85;;;3.60;;
10126;SDS011;13080;42.608;23.362;2023-10-08T08:23:29;8.52;;;3.95;;
10126;SDS011;13080;42.608;23.362;2023-10-08T08:25:57;8.15;;;3.85;;
10126;SDS011;13080;42.608;23.362;2023-10-08T08:28:38;9.40;;;4.00;;
10126;SDS011;13080;42.608;23.362;2023-10-08T08:31:06;7.43;;;3.15;;
10126;SDS011;13080;42.608;23.362;2023-10-08T08:33:40;10.20;;;3.45;;
10126;SDS011;13080;42.608;23.362;2023-10-08T08:36:21;7.55;;;2.53;;
10126;SDS011;13080;42.608;23.362;2023-10-08T08:38:49;6.60;;;2.88;;
10126;SDS011;13080;42.608;23.362;2023-10-08T08:41:15;7.43;;;2.97;;
10126;SDS011;13080;42.608;23.362;2023-10-08T08:43:47;5.00;;;2.20;;
10126;SDS011;13080;42.608;23.362;2023-10-08T08:46:14;13.07;;;2.97;;
10126;SDS011;13080;42.608;23.362;2023-10-08T08:48:42;5.10;;;2.45;;
10126;SDS011;13080;42.608;23.362;2023-10-08T08:51:10;8.52;;;2.92;;
10126;SDS011;13080;42.608;23.362;2023-10-08T08:53:38;7.75;;;2.67;;
10126;SDS011;13080;42.608;23.362;2023-10-08T08:56:06;10.10;;;2.55;;
10126;SDS011;13080;42.608;23.362;2023-10-08T08:58:35;7.10;;;3.50;;
10126;SDS011;13080;42.608;23.362;2023-10-08T09:01:05;14.55;;;3.03;;
10126;SDS011;13080;42.608;23.362;2023-10-08T09:03:34;10.15;;;2.90;;
10126;SDS011;13080;42.608;23.362;2023-10-08T09:06:02;7.35;;;2.42;;
10126;SDS011;13080;42.608;23.362;2023-10-08T09:08:32;4.55;;;2.17;;
10126;SDS011;13080;42.608;23.362;2023-10-08T09:11:00;6.20;;;2.70;;
10126;SDS011;13080;42.608;23.362;2023-10-08T09:13:29;6.65;;;2.83;;
10126;SDS011;13080;42.608;23.362;2023-10-08T09:15:57;6.85;;;2.83;;
10126;SDS011;13080;42.608;23.362;2023-10-08T09:18:31;7.85;;;2.67;;
10126;SDS011;13080;42.608;23.362;2023-10-08T09:21:06;7.93;;;2.78;;
10126;SDS011;13080;42.608;23.362;2023-10-08T09:23:37;7.75;;;3.20;;
10126;SDS011;13080;42.608;23.362;2023-10-08T09:26:08;5.85;;;2.72;;
10126;SDS011;13080;42.608;23.362;2023-10-08T09:28:35;8.52;;;2.85;;
10126;SDS011;13080;42.608;23.362;2023-10-08T09:31:04;6.40;;;2.65;;
10126;SDS011;13080;42.608;23.362;2023-10-08T09:33:33;10.02;;;2.50;;
10126;SDS011;13080;42.608;23.362;2023-10-08T09:35:59;8.52;;;2.85;;
10126;SDS011;13080;42.608;23.362;2023-10-08T09:38:30;6.43;;;2.47;;
10126;SDS011;13080;42.608;23.362;2023-10-08T09:40:59;6.47;;;2.55;;
10126;SDS011;13080;42.608;23.362;2023-10-08T09:43:28;13.10;;;2.95;;
10126;SDS011;13080;42.608;23.362;2023-10-08T09:45:55;6.32;;;2.55;;
10126;SDS011;13080;42.608;23.362;2023-10-08T09:48:30;6.43;;;2.40;;
10126;SDS011;13080;42.608;23.362;2023-10-08T09:51:01;5.68;;;3.25;;
10126;SDS011;13080;42.608;23.362;2023-10-08T09:53:32;8.35;;;2.63;;
10126;SDS011;13080;42.608;23.362;2023-10-08T09:56:11;6.72;;;2.90;;
10126;SDS011;13080;42.608;23.362;2023-10-08T09:58:40;5.45;;;2.42;;
10126;SDS011;13080;42.608;23.362;2023-10-08T10:01:08;8.10;;;2.55;;
10126;SDS011;13080;42.608;23.362;2023-10-08T10:03:37;6.63;;;2.47;;
10126;SDS011;13080;42.608;23.362;2023-10-08T10:06:11;7.93;;;2.80;;
10126;SDS011;13080;42.608;23.362;2023-10-08T10:08:40;7.10;;;3.42;;
10126;SDS011;13080;42.608;23.362;2023-10-08T10:11:08;7.38;;;2.80;;
10126;SDS011;13080;42.608;23.362;2023-10-08T10:13:38;7.45;;;2.60;;
10126;SDS011;13080;42.608;23.362;2023-10-08T10:16:06;8.43;;;2.53;;
10126;SDS011;13080;42.608;23.362;2023-10-08T10:18:33;5.97;;;2.10;;
10126;SDS011;13080;42.608;23.362;2023-10-08T10:23:54;5.82;;;2.47;;
10126;SDS011;13080;42.608;23.362;2023-10-08T10:26:22;6.13;;;2.42;;
10126;SDS011;13080;42.608;23.362;2023-10-08T10:31:51;5.82;;;2.30;;
10126;SDS011;13080;42.608;23.362;2023-10-08T10:34:20;9.32;;;2.30;;
10126;SDS011;13080;42.608;23.362;2023-10-08T10:36:50;5.53;;;2.33;;
10126;SDS011;13080;42.608;23.362;2023-10-08T10:39:23;6.07;;;2.33;;
10126;SDS011;13080;42.608;23.362;2023-10-08T10:41:56;7.57;;;2.67;;
10126;SDS011;13080;42.608;23.362;2023-10-08T10:44:26;5.80;;;2.65;;
10126;SDS011;13080;42.608;23.362;2023-10-08T10:46:54;4.57;;;2.20;;
10126;SDS011;13080;42.608;23.362;2023-10-08T10:49:47;6.43;;;2.60;;
10126;SDS011;13080;42.608;23.362;2023-10-08T10:52:20;6.07;;;2.35;;
10126;SDS011;13080;42.608;23.362;2023-10-08T10:54:58;9.48;;;2.15;;
10126;SDS011;13080;42.608;23.362;2023-10-08T10:57:43;6.38;;;2.22;;
10126;SDS011;13080;42.608;23.362;2023-10-08T11:00:10;10.35;;;2.70;;
10126;SDS011;13080;42.608;23.362;2023-10-08T11:03:04;7.05;;;2.13;;
10126;SDS011;13080;42.608;23.362;2023-10-08T11:05:41;3.97;;;1.80;;
10126;SDS011;13080;42.608;23.362;2023-10-08T11:08:15;5.25;;;2.30;;
10126;SDS011;13080;42.608;23.362;2023-10-08T11:10:44;10.00;;;2.53;;
10126;SDS011;13080;42.608;23.362;2023-10-08T11:13:15;5.47;;;2.45;;
10126;SDS011;13080;42.608;23.362;2023-10-08T11:15:43;7.97;;;2.55;;
10126;SDS011;13080;42.608;23.362;2023-10-08T11:18:14;5.35;;;2.53;;
10126;SDS011;13080;42.608;23.362;2023-10-08T11:20:43;7.32;;;2.63;;
10126;SDS011;13080;42.608;23.362;2023-10-08T11:23:10;8.95;;;2.47;;
10126;SDS011;13080;42.608;23.362;2023-10-08T11:25:54;6.10;;;2.00;;
10126;SDS011;13080;42.608;23.362;2023-10-08T11:28:25;9.57;;;2.45;;
10126;SDS011;13080;42.608;23.362;2023-10-08T11:30:52;8.43;;;2.22;;
10126;SDS011;13080;42.608;23.362;2023-10-08T11:33:20;5.57;;;2.03;;
10126;SDS011;13080;42.608;23.362;2023-10-08T11:35:56;5.88;;;2.05;;
10126;SDS011;13080;42.608;23.362;2023-10-08T11:38:25;8.65;;;2.60;;
10126;SDS011;13080;42.608;23.362;2023-10-08T11:40:54;5.38;;;2.03;;
10126;SDS011;13080;42.608;23.362;2023-10-08T11:43:23;6.30;;;1.92;;
10126;SDS011;13080;42.608;23.362;2023-10-08T11:45:50;10.73;;;2.20;;
10126;SDS011;13080;42.608;23.362;2023-10-08T11:48:17;7.78;;;2.13;;
10126;SDS011;13080;42.608;23.362;2023-10-08T11:50:53;8.15;;;2.38;;
10126;SDS011;13080;42.608;23.362;2023-10-08T11:53:22;6.80;;;2.03;;
10126;SDS011;13080;42.608;23.362;2023-10-08T11:55:49;9.10;;;2.35;;
10126;SDS011;13080;42.608;23.362;2023-10-08T11:58:23;8.35;;;1.90;;
10126;SDS011;13080;42.608;23.362;2023-10-08T12:01:02;12.70;;;2.47;;
10126;SDS011;13080;42.608;23.362;2023-10-08T12:03:30;5.43;;;2.28;;
10126;SDS011;13080;42.608;23.362;2023-10-08T12:05:56;9.35;;;2.10;;
10126;SDS011;13080;42.608;23.362;2023-10-08T12:08:25;8.73;;;1.85;;
10126;SDS011;13080;42.608;23.362;2023-10-08T12:10:53;6.57;;;2.17;;
10126;SDS011;13080;42.608;23.362;2023-10-08T12:13:20;5.97;;;1.73;;
10126;SDS011;13080;42.608;23.362;2023-10-08T12:15:51;12.30;;;2.60;;
10126;SDS011;13080;42.608;23.362;2023-10-08T12:18:27;7.78;;;2.00;;
10126;SDS011;13080;42.608;23.362;2023-10-08T12:20:55;6.05;;;2.70;;
10126;SDS011;13080;42.608;23.362;2023-10-08T12:23:22;9.25;;;2.72;;
10126;SDS011;13080;42.608;23.362;2023-10-08T12:25:51;7.85;;;2.20;;
10126;SDS011;13080;42.608;23.362;2023-10-08T12:28:20;8.07;;;2.42;;
10126;SDS011;13080;42.608;23.362;2023-10-08T12:30:48;6.97;;;2.42;;
10126;SDS011;13080;42.608;23.362;2023-10-08T12:33:19;8.77;;;2.25;;
10126;SDS011;13080;42.608;23.362;2023-10-08T12:35:47;6.03;;;2.50;;
10126;SDS011;13080;42.608;23.362;2023-10-08T12:38:14;8.18;;;2.47;;
10126;SDS011;13080;42.608;23.362;2023-10-08T12:40:41;5.60;;;2.08;;
10126;SDS011;13080;42.608;23.362;2023-10-08T12:43:17;6.45;;;2.50;;
10126;SDS011;13080;42.608;23.362;2023-10-08T12:45:45;8.63;;;2.28;;
10126;SDS011;13080;42.608;23.362;2023-10-08T12:48:21;6.35;;;2.10;;
10126;SDS011;13080;42.608;23.362;2023-10-08T12:50:49;5.28;;;2.42;;
10126;SDS011;13080;42.608;23.362;2023-10-08T12:53:21;4.95;;;2.13;;
10126;SDS011;13080;42.608;23.362;2023-10-08T12:55:58;11.02;;;2.90;;
10126;SDS011;13080;42.608;23.362;2023-10-08T12:58:30;9.90;;;2.40;;
10126;SDS011;13080;42.608;23.362;2023-10-08T13:01:04;12.35;;;2.38;;
10126;SDS011;13080;42.608;23.362;2023-10-08T13:03:33;10.70;;;2.45;;
10126;SDS011;13080;42.608;23.362;2023-10-08T13:06:06;10.82;;;2.13;;
10126;SDS011;13080;42.608;23.362;2023-10-08T13:08:36;7.47;;;2.15;;
10126;SDS011;13080;42.608;23.362;2023-10-08T13:11:03;7.47;;;2.38;;
10126;SDS011;13080;42.608;23.362;2023-10-08T13:13:30;8.68;;;2.22;;
10126;SDS011;13080;42.608;23.362;2023-10-08T13:15:58;8.32;;;2.15;;
10126;SDS011;13080;42.608;23.362;2023-10-08T13:18:28;8.05;;;2.45;;
10126;SDS011;13080;42.608;23.362;2023-10-08T13:20:58;9.48;;;2.30;;
10126;SDS011;13080;42.608;23.362;2023-10-08T13:23:26;6.40;;;2.72;;
10126;SDS011;13080;42.608;23.362;2023-10-08T13:25:53;7.70;;;2.00;;
10126;SDS011;13080;42.608;23.362;2023-10-08T13:28:20;4.78;;;2.05;;
10126;SDS011;13080;42.608;23.362;2023-10-08T13:30:48;7.00;;;1.85;;
10126;SDS011;13080;42.608;23.362;2023-10-08T13:33:18;8.55;;;2.28;;
10126;SDS011;13080;42.608;23.362;2023-10-08T13:35:45;6.03;;;2.05;;
10126;SDS011;13080;42.608;23.362;2023-10-08T13:38:16;8.07;;;2.28;;
10126;SDS011;13080;42.608;23.362;2023-10-08T13:40:45;10.50;;;3.00;;
10126;SDS011;13080;42.608;23.362;2023-10-08T13:43:27;11.65;;;2.38;;
10126;SDS011;13080;42.608;23.362;2023-10-08T13:45:59;8.02;;;2.08;;
10126;SDS011;13080;42.608;23.362;2023-10-08T13:48:32;9.25;;;2.28;;
10126;SDS011;13080;42.608;23.362;2023-10-08T13:50:59;6.30;;;2.25;;
10126;SDS011;13080;42.608;23.362;2023-10-08T13:53:30;8.60;;;2.20;;
10126;SDS011;13080;42.608;23.362;2023-10-08T13:55:58;7.60;;;2.17;;
10126;SDS011;13080;42.608;23.362;2023-10-08T13:58:27;7.47;;;2.00;;
10126;SDS011;13080;42.608;23.362;2023-10-08T14:00:55;8.15;;;2.55;;
10126;SDS011;13080;42.608;23.362;2023-10-08T14:03:25;12.20;;;2.63;;
10126;SDS011;13080;42.608;23.362;2023-10-08T14:05:53;13.25;;;2.30;;
10126;SDS011;13080;42.608;23.362;2023-10-08T14:08:24;7.95;;;2.33;;
10126;SDS011;13080;42.608;23.362;2023-10-08T14:10:55;7.20;;;2.10;;
10126;SDS011;13080;42.608;23.362;2023-10-08T14:13:28;5.43;;;1.55;;
10126;SDS011;13080;42.608;23.362;2023-10-08T14:15:56;11.27;;;2.53;;
10126;SDS011;13080;42.608;23.362;2023-10-08T14:18:23;8.20;;;2.30;;
10126;SDS011;13080;42.608;23.362;2023-10-08T14:20:53;8.30;;;2.22;;
10126;SDS011;13080;42.608;23.362;2023-10-08T14:23:21;8.52;;;2.08;;
10126;SDS011;13080;42.608;23.362;2023-10-08T14:25:50;7.90;;;2.10;;
10126;SDS011;13080;42.608;23.362;2023-10-08T14:28:23;7.35;;;1.88;;
10126;SDS011;13080;42.608;23.362;2023-10-08T14:31:05;9.82;;;2.03;;
10126;SDS011;13080;42.608;23.362;2023-10-08T14:33:33;13.57;;;2.17;;
10126;SDS011;13080;42.608;23.362;2023-10-08T14:36:07;12.05;;;3.22;;
10126;SDS011;13080;42.608;23.362;2023-10-08T14:38:51;8.00;;;2.35;;
10126;SDS011;13080;42.608;23.362;2023-10-08T14:41:36;11.82;;;2.25;;
10126;SDS011;13080;42.608;23.362;2023-10-08T14:44:21;9.50;;;2.50;;
10126;SDS011;13080;42.608;23.362;2023-10-08T14:46:48;13.68;;;2.65;;
10126;SDS011;13080;42.608;23.362;2023-10-08T14:49:15;14.77;;;2.30;;
10126;SDS011;13080;42.608;23.362;2023-10-08T14:51:42;8.65;;;1.83;;
10126;SDS011;13080;42.608;23.362;2023-10-08T14:56:40;10.60;;;2.10;;
10126;SDS011;13080;42.608;23.362;2023-10-08T14:59:07;12.30;;;2.92;;
10126;SDS011;13080;42.608;23.362;2023-10-08T15:01:36;12.90;;;2.38;;
10126;SDS011;13080;42.608;23.362;2023-10-08T15:04:03;12.32;;;3.15;;
10126;SDS011;13080;42.608;23.362;2023-10-08T15:06:30;9.73;;;2.33;;
10126;SDS011;13080;42.608;23.362;2023-10-08T15:08:58;12.95;;;2.47;;
10126;SDS011;13080;42.608;23.362;2023-10-08T15:11:25;10.35;;;2.50;;
10126;SDS011;13080;42.608;23.362;2023-10-08T15:13:55;8.57;;;1.92;;
10126;SDS011;13080;42.608;23.362;2023-10-08T15:16:22;12.50;;;2.38;;
10126;SDS011;13080;42.608;23.362;2023-10-08T15:18:52;11.00;;;2.55;;